Time;durP1;ratioP1;P1;durP2;ratioP2;P2;SDS_P1;SDS_P2;PMS_P1;PMS_P2;Temp;Humidity;BMP_temperature;BMP_pressure;BME280_temperature;BME280_humidity;BME280_pressure;Samples;Min_cycle;Max_cycle;Signal;HPM_P1;HPM_P2
2022/02/21 00:02:05;;;;;;;3.27;0.60;;;29.80;39.30;;;;;;5052795;28;20234;-77
2022/02/21 00:04:33;;;;;;;1.40;0.53;;;29.90;39.40;;;;;;5052967;28;20180;-76
2022/02/21 00:07:01;;;;;;;1.63;0.83;;;29.90;39.00;;;;;;5052610;28;20338;-81
2022/02/21 00:09:29;;;;;;;1.20;0.60;;;30.10;38.70;;;;;;5053379;28;20180;-78
2022/02/21 00:11:56;;;;;;;3.33;0.60;;;29.90;38.30;;;;;;5053399;28;20184;-82
2022/02/21 00:14:23;;;;;;;5.50;0.80;;;30.00;38.60;;;;;;5051441;28;20184;-79
2022/02/21 00:16:51;;;;;;;1.73;0.70;;;30.30;38.20;;;;;;5051569;28;20901;-80
2022/02/21 00:19:18;;;;;;;3.30;0.80;;;30.40;37.70;;;;;;5052925;28;20198;-77
2022/02/21 00:21:45;;;;;;;1.00;0.65;;;30.40;36.80;;;;;;5053260;28;20172;-77
2022/02/21 00:24:13;;;;;;;2.67;0.50;;;30.40;37.60;;;;;;5046667;28;20200;-78
2022/02/21 00:26:40;;;;;;;3.28;1.25;;;30.80;37.00;;;;;;5051487;28;20243;-78
2022/02/21 00:29:08;;;;;;;9.43;1.27;;;30.50;36.80;;;;;;5052418;28;20172;-78
2022/02/21 00:31:36;;;;;;;2.65;0.60;;;30.60;37.50;;;;;;5052423;28;20268;-79
2022/02/21 00:34:03;;;;;;;4.38;0.80;;;30.90;36.60;;;;;;5051954;28;20176;-78
2022/02/21 00:36:31;;;;;;;1.10;0.60;;;31.20;36.20;;;;;;5052690;28;20524;-79
2022/02/21 00:38:58;;;;;;;3.38;0.63;;;31.10;36.00;;;;;;5052189;28;20200;-78
2022/02/21 00:41:26;;;;;;;2.92;0.73;;;31.20;36.00;;;;;;5052065;28;20270;-81
2022/02/21 00:43:53;;;;;;;2.70;0.60;;;31.30;35.80;;;;;;5052930;28;20176;-80
2022/02/21 00:46:20;;;;;;;0.98;0.60;;;31.40;35.90;;;;;;5052556;28;20215;-78
2022/02/21 00:48:48;;;;;;;2.38;0.90;;;31.70;35.70;;;;;;5053191;28;20176;-77
2022/02/21 00:51:15;;;;;;;3.15;0.63;;;31.80;35.50;;;;;;5052649;28;20226;-78
2022/02/21 00:53:43;;;;;;;2.00;0.70;;;31.60;35.50;;;;;;5052418;28;20203;-80
2022/02/21 00:56:10;;;;;;;2.17;0.90;;;31.90;35.00;;;;;;5052696;28;20180;-80
2022/02/21 00:58:38;;;;;;;2.80;0.70;;;32.10;35.40;;;;;;5049003;28;20284;-77
2022/02/21 01:01:05;;;;;;;1.88;0.73;;;31.90;35.10;;;;;;5052242;28;20658;-78
2022/02/21 01:03:32;;;;;;;3.40;0.70;;;32.20;34.30;;;;;;5051619;28;20204;-78
2022/02/21 01:06:00;;;;;;;0.75;0.55;;;32.40;34.20;;;;;;5052144;28;20187;-79
2022/02/21 01:08:27;;;;;;;4.18;1.10;;;32.40;34.30;;;;;;5051171;28;20298;-80
2022/02/21 01:10:54;;;;;;;4.85;1.10;;;32.40;35.00;;;;;;5052254;28;20648;-78
2022/02/21 01:13:22;;;;;;;2.50;0.80;;;32.40;34.80;;;;;;5052279;28;20184;-78
2022/02/21 01:15:49;;;;;;;2.78;1.00;;;32.80;34.30;;;;;;5052349;28;20710;-76
2022/02/21 01:18:16;;;;;;;2.80;0.73;;;32.90;34.80;;;;;;5051849;28;20657;-80
2022/02/21 01:20:44;;;;;;;4.63;1.02;;;32.60;34.60;;;;;;5046821;28;20182;-79
2022/02/21 01:23:11;;;;;;;2.08;0.82;;;32.40;35.20;;;;;;5051548;28;20180;-79
2022/02/21 01:25:39;;;;;;;1.88;1.00;;;32.70;35.10;;;;;;5049612;28;20188;-78
2022/02/21 01:28:07;;;;;;;1.45;0.80;;;32.80;34.30;;;;;;5047264;28;20238;-82
2022/02/21 01:30:34;;;;;;;4.57;0.88;;;33.20;34.80;;;;;;5051634;28;20207;-80
2022/02/21 01:33:02;;;;;;;3.20;0.82;;;33.60;33.90;;;;;;5051031;28;21427;-76
2022/02/21 01:35:29;;;;;;;4.72;0.95;;;33.10;33.60;;;;;;5051804;28;20188;-78
2022/02/21 01:37:56;;;;;;;3.08;1.00;;;33.40;34.00;;;;;;5051444;28;20180;-78
2022/02/21 01:40:24;;;;;;;2.75;0.65;;;33.20;35.70;;;;;;5051722;28;20179;-79
2022/02/21 01:42:51;;;;;;;2.22;0.85;;;33.10;36.30;;;;;;5049094;28;20328;-82
2022/02/21 01:45:18;;;;;;;6.18;1.50;;;33.00;35.00;;;;;;5050545;28;20232;-80
2022/02/21 01:47:49;;;;;;;4.80;0.90;;;33.10;35.20;;;;;;5049645;28;20954;-79
2022/02/21 01:50:16;;;;;;;3.80;1.00;;;33.10;35.10;;;;;;5049544;28;20211;-85
2022/02/21 01:52:43;;;;;;;1.58;0.98;;;33.10;35.10;;;;;;5050744;28;20192;-79
2022/02/21 01:55:12;;;;;;;4.55;0.98;;;33.10;35.20;;;;;;5049849;28;20186;-79
2022/02/21 01:57:42;;;;;;;4.68;1.10;;;32.80;35.90;;;;;;5051017;28;20188;-76
2022/02/21 02:00:10;;;;;;;4.70;1.17;;;33.00;36.00;;;;;;5050283;28;20210;-82
2022/02/21 02:02:37;;;;;;;3.40;0.80;;;32.90;36.20;;;;;;5050745;28;20180;-76
2022/02/21 02:05:06;;;;;;;6.40;1.25;;;32.70;35.90;;;;;;5050381;28;20188;-82
2022/02/21 02:07:33;;;;;;;4.43;0.90;;;32.40;36.50;;;;;;5050968;28;20212;-79
2022/02/21 02:10:01;;;;;;;4.05;0.90;;;32.10;37.20;;;;;;5049775;28;20184;-79
2022/02/21 02:12:29;;;;;;;9.75;1.17;;;32.00;37.70;;;;;;5051266;28;20176;-79
2022/02/21 02:14:59;;;;;;;3.45;0.90;;;32.00;36.70;;;;;;5048744;28;20186;-80
2022/02/21 02:17:28;;;;;;;2.60;0.88;;;32.00;37.20;;;;;;5049758;28;20278;-79
2022/02/21 02:19:55;;;;;;;1.95;0.77;;;32.00;37.80;;;;;;5050471;28;20180;-78
2022/02/21 02:22:24;;;;;;;3.47;1.17;;;31.80;37.90;;;;;;5050012;28;20183;-83
2022/02/21 02:24:53;;;;;;;4.55;0.73;;;31.80;38.50;;;;;;5049385;28;20251;-81
2022/02/21 02:27:22;;;;;;;3.83;1.00;;;31.30;39.60;;;;;;5048503;28;20219;-83
2022/02/21 02:29:53;;;;;;;6.00;0.80;;;31.10;40.60;;;;;;5049650;28;20187;-85
2022/02/21 02:32:21;;;;;;;3.30;0.85;;;30.90;40.40;;;;;;5049685;28;20188;-79
2022/02/21 02:34:49;;;;;;;1.45;0.82;;;30.80;41.40;;;;;;5050422;28;20191;-82
2022/02/21 02:37:19;;;;;;;4.93;1.05;;;30.80;42.10;;;;;;5051406;28;20658;-87
2022/02/21 02:39:46;;;;;;;3.75;1.05;;;30.60;43.30;;;;;;5050659;28;20226;-77
2022/02/21 02:42:14;;;;;;;3.97;0.90;;;30.40;44.20;;;;;;5054610;28;20184;-86
2022/02/21 02:44:41;;;;;;;8.70;1.30;;;30.30;45.00;;;;;;5054434;28;20623;-84
2022/02/21 02:47:11;;;;;;;4.45;0.95;;;30.20;45.80;;;;;;5054268;28;20202;-84
2022/02/21 02:49:39;;;;;;;3.57;1.40;;;30.30;46.10;;;;;;5055164;28;20266;-79
2022/02/21 02:52:07;;;;;;;3.42;1.10;;;30.00;46.70;;;;;;5055264;28;20180;-82
2022/02/21 02:54:35;;;;;;;6.85;1.33;;;30.00;47.90;;;;;;5053026;28;20206;-80
2022/02/21 02:57:02;;;;;;;5.57;1.63;;;30.10;48.50;;;;;;5054434;28;20195;-79
2022/02/21 02:59:30;;;;;;;6.15;1.40;;;30.00;49.00;;;;;;5053447;28;20172;-87
2022/02/21 03:01:57;;;;;;;5.55;1.80;;;30.10;49.60;;;;;;5050830;28;20546;-78
2022/02/21 03:04:24;;;;;;;9.40;2.33;;;30.30;50.20;;;;;;5052407;28;20206;-82
2022/02/21 03:06:52;;;;;;;10.38;2.08;;;30.30;50.80;;;;;;5054696;28;20203;-79
2022/02/21 03:09:19;;;;;;;12.02;2.92;;;30.60;51.50;;;;;;5049824;28;20180;-80
2022/02/21 03:11:47;;;;;;;11.88;3.10;;;30.80;52.50;;;;;;5053834;28;20525;-79
2022/02/21 03:14:14;;;;;;;19.75;4.68;;;30.90;52.90;;;;;;5052951;28;20188;-78
2022/02/21 03:16:42;;;;;;;17.67;5.03;;;30.70;53.80;;;;;;5053902;28;20586;-82
2022/02/21 03:19:09;;;;;;;19.08;4.97;;;30.80;53.20;;;;;;5054097;28;20203;-81
2022/02/21 03:21:36;;;;;;;17.48;4.15;;;31.40;52.70;;;;;;5053700;28;20187;-78
2022/02/21 03:24:04;;;;;;;16.27;4.20;;;31.40;52.90;;;;;;5054551;28;20180;-82
2022/02/21 03:26:32;;;;;;;18.20;4.03;;;31.80;52.20;;;;;;5053318;28;20179;-84
2022/02/21 03:29:00;;;;;;;21.73;4.07;;;31.80;51.70;;;;;;5052184;28;20211;-85
2022/02/21 03:31:27;;;;;;;17.88;4.40;;;31.30;53.00;;;;;;5054287;28;20233;-80
2022/02/21 03:33:55;;;;;;;19.95;4.50;;;31.30;52.80;;;;;;5054144;28;20631;-76
2022/02/21 03:36:22;;;;;;;29.17;4.20;;;31.50;52.00;;;;;;5050155;28;20259;-82
2022/02/21 03:38:49;;;;;;;17.58;3.95;;;31.90;52.20;;;;;;5054189;28;20237;-83
2022/02/21 03:41:17;;;;;;;21.30;4.10;;;32.20;50.00;;;;;;5053462;28;20172;-78
2022/02/21 03:43:44;;;;;;;15.98;4.10;;;31.80;51.60;;;;;;5054314;28;20250;-80
2022/02/21 03:46:12;;;;;;;21.25;4.10;;;32.00;52.40;;;;;;5053313;28;20251;-77
2022/02/21 03:48:39;;;;;;;20.35;4.05;;;32.50;51.10;;;;;;5052026;28;20276;-79
2022/02/21 03:51:07;;;;;;;19.83;4.88;;;31.90;51.20;;;;;;5052962;28;20183;-78
2022/02/21 03:53:34;;;;;;;17.30;2.97;;;31.90;51.30;;;;;;5053227;28;20184;-79
2022/02/21 03:56:02;;;;;;;15.50;3.42;;;31.30;50.30;;;;;;5052901;28;20191;-80
2022/02/21 03:58:29;;;;;;;20.38;3.70;;;31.10;50.70;;;;;;5053863;28;20684;-80
2022/02/21 04:00:56;;;;;;;11.82;3.28;;;31.60;50.20;;;;;;5051506;28;20642;-76
2022/02/21 04:03:24;;;;;;;17.85;3.67;;;31.60;51.30;;;;;;5053748;28;20315;-79
2022/02/21 04:05:51;;;;;;;17.67;3.00;;;30.90;51.60;;;;;;5053770;28;20187;-84
2022/02/21 04:08:18;;;;;;;17.95;3.88;;;31.60;50.60;;;;;;5053107;28;20219;-79
2022/02/21 04:10:46;;;;;;;13.18;3.08;;;31.60;49.90;;;;;;5053998;28;20176;-80
2022/02/21 04:13:13;;;;;;;15.15;2.83;;;31.20;50.40;;;;;;5050406;28;20196;-82
2022/02/21 04:15:40;;;;;;;15.75;3.25;;;31.30;49.90;;;;;;5053565;28;20171;-83
2022/02/21 04:18:08;;;;;;;9.75;3.15;;;31.10;51.00;;;;;;5052468;28;20195;-78
2022/02/21 04:20:35;;;;;;;12.32;3.20;;;31.70;49.30;;;;;;5047573;28;20180;-80
2022/02/21 04:23:03;;;;;;;22.38;4.05;;;31.70;49.80;;;;;;5049878;28;20188;-81
2022/02/21 04:25:30;;;;;;;14.50;3.03;;;31.50;50.30;;;;;;5050923;28;20176;-78
2022/02/21 04:27:58;;;;;;;19.02;3.40;;;31.40;50.70;;;;;;5052055;28;20212;-78
2022/02/21 04:30:28;;;;;;;11.90;2.88;;;32.10;49.30;;;;;;5052021;28;20191;-78
2022/02/21 04:32:55;;;;;;;15.10;3.20;;;32.10;49.10;;;;;;5052804;28;20187;-78
2022/02/21 04:35:25;;;;;;;19.35;4.00;;;32.00;48.40;;;;;;5048044;28;20172;-79
2022/02/21 04:37:53;;;;;;;17.98;3.08;;;32.90;46.50;;;;;;5052364;28;20185;-82
2022/02/21 04:40:28;;;;;;;15.15;3.22;;;32.50;47.00;;;;;;5051429;28;20192;-80
2022/02/21 04:42:56;;;;;;;12.57;3.22;;;32.40;46.80;;;;;;5051148;28;20194;-76
2022/02/21 04:45:24;;;;;;;16.90;3.10;;;32.30;47.60;;;;;;5052132;28;20208;-82
2022/02/21 04:47:52;;;;;;;13.07;2.58;;;32.40;47.10;;;;;;5051550;28;20208;-78
2022/02/21 04:50:20;;;;;;;10.63;2.65;;;32.90;44.70;;;;;;5052670;28;20176;-79
2022/02/21 04:52:48;;;;;;;13.63;2.90;;;33.50;44.40;;;;;;5052992;28;20188;-81
2022/02/21 04:55:15;;;;;;;15.02;2.70;;;33.90;43.30;;;;;;5052845;28;20181;-80
2022/02/21 04:57:43;;;;;;;11.70;3.03;;;33.40;43.20;;;;;;5052770;28;20179;-80
2022/02/21 05:00:13;;;;;;;13.57;2.88;;;33.00;44.80;;;;;;5050019;28;20667;-85
2022/02/21 05:02:41;;;;;;;16.13;3.80;;;32.90;45.60;;;;;;5052586;28;20715;-79
2022/02/21 05:05:10;;;;;;;15.02;3.35;;;33.20;44.90;;;;;;5051958;28;20176;-78
2022/02/21 05:07:43;;;;;;;9.43;2.63;;;33.20;43.80;;;;;;5052764;28;20196;-80
2022/02/21 05:10:10;;;;;;;11.05;2.60;;;33.40;43.60;;;;;;5053132;28;20211;-77
2022/02/21 05:12:38;;;;;;;12.75;2.97;;;32.80;45.70;;;;;;5049296;28;20641;-82
2022/02/21 05:15:06;;;;;;;11.13;3.50;;;33.40;45.60;;;;;;5052975;28;20257;-81
2022/02/21 05:17:34;;;;;;;14.70;3.10;;;33.30;45.80;;;;;;5052702;28;20519;-80
2022/02/21 05:20:02;;;;;;;19.88;3.97;;;33.30;45.50;;;;;;5052713;28;20305;-79
2022/02/21 05:22:30;;;;;;;15.00;3.35;;;33.00;46.80;;;;;;5052511;28;20180;-82
2022/02/21 05:24:58;;;;;;;18.02;3.53;;;33.50;46.20;;;;;;5051897;28;20211;-82
2022/02/21 05:27:28;;;;;;;20.30;4.45;;;33.20;47.00;;;;;;5049424;28;20419;-80
2022/02/21 05:29:55;;;;;;;14.60;3.05;;;32.30;48.50;;;;;;5051554;28;20190;-81
2022/02/21 05:32:25;;;;;;;12.68;3.10;;;32.60;47.70;;;;;;5044429;28;20668;-79
2022/02/21 05:34:53;;;;;;;26.02;4.53;;;31.70;49.80;;;;;;5051436;28;20187;-80
2022/02/21 05:37:20;;;;;;;21.02;4.10;;;31.30;52.10;;;;;;5050485;28;20649;-80
2022/02/21 05:39:47;;;;;;;19.10;4.18;;;31.40;52.70;;;;;;5050471;28;20184;-78
2022/02/21 05:42:15;;;;;;;18.45;4.25;;;31.50;52.80;;;;;;5051724;28;20184;-80
2022/02/21 05:44:43;;;;;;;23.00;4.15;;;31.40;52.70;;;;;;5051966;28;20172;-80
2022/02/21 05:47:10;;;;;;;18.40;4.22;;;31.10;53.00;;;;;;5051670;28;20212;-79
2022/02/21 05:49:37;;;;;;;17.15;4.30;;;30.80;54.50;;;;;;5051767;28;20191;-78
2022/02/21 05:52:05;;;;;;;18.92;4.60;;;31.40;53.20;;;;;;5051572;28;20199;-80
2022/02/21 05:54:33;;;;;;;20.20;4.85;;;31.60;52.60;;;;;;5051625;28;20211;-80
2022/02/21 05:57:00;;;;;;;17.25;3.97;;;30.60;55.10;;;;;;5050397;28;20183;-80
2022/02/21 05:59:27;;;;;;;24.75;3.80;;;30.10;56.20;;;;;;5052612;28;20676;-80
2022/02/21 06:01:55;;;;;;;18.98;4.18;;;30.10;55.10;;;;;;5051228;28;20245;-80
2022/02/21 06:04:22;;;;;;;19.48;4.18;;;30.80;53.70;;;;;;5048470;28;20188;-79
2022/02/21 06:06:49;;;;;;;22.08;4.10;;;30.80;54.40;;;;;;5051644;28;20179;-80
2022/02/21 06:09:17;;;;;;;18.80;4.20;;;30.90;54.50;;;;;;5050736;28;20588;-81
2022/02/21 06:11:44;;;;;;;22.52;4.78;;;30.30;56.00;;;;;;5049751;28;20720;-83
2022/02/21 06:14:12;;;;;;;21.17;4.82;;;29.40;57.70;;;;;;5050005;28;20180;-80
2022/02/21 06:16:41;;;;;;;20.23;4.07;;;28.80;59.30;;;;;;5055509;28;20180;-80
2022/02/21 06:19:09;;;;;;;25.37;4.43;;;28.50;60.60;;;;;;5055169;28;20180;-80
2022/02/21 06:21:36;;;;;;;25.30;5.03;;;28.00;62.50;;;;;;5055423;28;20538;-80
2022/02/21 06:24:04;;;;;;;24.60;4.90;;;27.70;63.60;;;;;;5055827;28;20280;-78
2022/02/21 06:26:31;;;;;;;29.97;5.57;;;27.60;63.60;;;;;;5055021;28;20665;-78
2022/02/21 06:28:59;;;;;;;25.07;4.30;;;27.60;63.70;;;;;;5049029;28;20215;-76
2022/02/21 06:31:26;;;;;;;31.67;5.10;;;27.30;64.00;;;;;;5055241;28;20638;-82
2022/02/21 06:33:53;;;;;;;15.43;4.20;;;27.30;63.80;;;;;;5055758;28;20188;-77
2022/02/21 06:36:21;;;;;;;25.33;4.53;;;27.20;64.60;;;;;;5054840;28;20176;-82
2022/02/21 06:38:48;;;;;;;28.17;4.70;;;27.10;65.60;;;;;;5055763;28;20180;-75
2022/02/21 06:41:15;;;;;;;21.07;3.90;;;27.00;66.40;;;;;;5054987;28;20759;-77
2022/02/21 06:43:43;;;;;;;23.40;5.47;;;26.70;67.70;;;;;;5052963;28;20191;-78
2022/02/21 06:46:11;;;;;;;22.10;5.47;;;26.70;68.40;;;;;;5053127;28;20227;-78
2022/02/21 06:48:39;;;;;;;23.87;4.93;;;26.50;69.20;;;;;;5055250;28;20207;-80
2022/02/21 06:51:06;;;;;;;28.80;6.27;;;26.50;69.50;;;;;;5053572;28;20278;-79
2022/02/21 06:53:33;;;;;;;30.67;5.97;;;26.60;69.60;;;;;;5054908;28;20187;-76
2022/02/21 06:56:01;;;;;;;37.00;6.37;;;26.60;69.30;;;;;;5054793;28;20187;-77
2022/02/21 06:58:28;;;;;;;22.93;4.70;;;26.30;69.70;;;;;;5053944;28;20184;-79
2022/02/21 07:00:56;;;;;;;28.70;4.87;;;26.40;69.30;;;;;;5054303;28;20531;-79
2022/02/21 07:03:23;;;;;;;29.27;5.23;;;26.40;69.00;;;;;;5054405;28;20532;-78
2022/02/21 07:05:50;;;;;;;26.60;5.13;;;26.40;69.50;;;;;;5054726;28;20175;-77
2022/02/21 07:08:18;;;;;;;23.93;5.67;;;26.30;71.00;;;;;;5054555;28;20207;-77
2022/02/21 07:10:49;;;;;;;31.70;6.93;;;26.00;72.70;;;;;;5054916;28;20168;-80
2022/02/21 07:13:16;;;;;;;27.63;5.33;;;25.80;74.60;;;;;;5053830;28;20184;-82
2022/02/21 07:15:44;;;;;;;36.53;6.30;;;25.70;75.20;;;;;;5051725;28;20180;-78
2022/02/21 07:18:11;;;;;;;27.73;5.00;;;25.70;75.70;;;;;;5053448;28;20184;-77
2022/02/21 07:20:39;;;;;;;24.70;5.03;;;25.50;74.30;;;;;;5051467;28;20168;-78
2022/02/21 07:23:06;;;;;;;30.03;5.73;;;25.50;74.80;;;;;;5051922;28;20188;-75
2022/02/21 07:25:34;;;;;;;30.80;5.77;;;25.40;75.20;;;;;;5054714;28;20209;-75
2022/02/21 07:28:01;;;;;;;34.13;5.67;;;25.40;74.80;;;;;;5046466;28;20216;-77
2022/02/21 07:30:30;;;;;;;23.43;5.30;;;25.50;74.60;;;;;;5054232;28;20182;-75
2022/02/21 07:32:58;;;;;;;26.87;6.10;;;25.40;75.00;;;;;;5053341;28;20176;-76
2022/02/21 07:35:26;;;;;;;26.93;5.27;;;25.50;75.10;;;;;;5054080;28;20172;-75
2022/02/21 07:37:54;;;;;;;35.37;6.77;;;25.40;75.40;;;;;;5053659;28;20188;-78
2022/02/21 07:40:22;;;;;;;37.37;6.67;;;25.30;77.10;;;;;;5051270;28;20649;-77
2022/02/21 07:42:52;;;;;;;34.00;6.83;;;25.30;77.90;;;;;;5053079;28;20191;-80
2022/02/21 07:45:20;;;;;;;29.00;7.93;;;25.30;78.00;;;;;;5053663;28;20246;-82
2022/02/21 07:47:51;;;;;;;36.67;6.63;;;25.20;78.90;;;;;;5048490;28;20266;-78
2022/02/21 07:50:20;;;;;;;30.37;6.40;;;25.10;80.90;;;;;;5052428;28;20539;-75
2022/02/21 07:52:48;;;;;;;38.93;11.13;;;25.00;81.30;;;;;;5052775;28;20180;-72
2022/02/21 07:55:16;;;;;;;34.43;7.00;;;24.80;82.60;;;;;;5052980;28;20187;-72
2022/02/21 07:57:45;;;;;;;41.60;11.23;;;24.80;82.80;;;;;;5053771;28;20186;-74
2022/02/21 08:00:15;;;;;;;39.17;9.00;;;24.70;83.10;;;;;;5053406;28;20303;-74
2022/02/21 08:02:43;;;;;;;36.43;8.37;;;24.60;83.20;;;;;;5051658;28;20534;-72
2022/02/21 08:05:11;;;;;;;36.07;7.37;;;24.50;83.30;;;;;;5053164;28;20176;-75
2022/02/21 08:07:40;;;;;;;33.20;7.30;;;24.50;83.70;;;;;;5052138;28;20214;-75
2022/02/21 08:10:08;;;;;;;33.10;7.50;;;24.40;83.60;;;;;;5053285;28;20192;-78
2022/02/21 08:12:36;;;;;;;29.33;6.83;;;24.50;84.80;;;;;;5053294;28;20267;-76
2022/02/21 08:15:05;;;;;;;34.67;7.13;;;24.50;84.90;;;;;;5052166;28;20188;-77
2022/02/21 08:17:43;;;;;;;33.43;7.10;;;24.40;85.60;;;;;;5052215;28;20707;-76
2022/02/21 08:20:12;;;;;;;37.67;7.87;;;24.30;85.70;;;;;;5053324;28;20179;-79
2022/02/21 08:22:39;;;;;;;34.27;6.90;;;24.30;86.50;;;;;;5052948;28;20187;-86
2022/02/21 08:25:07;;;;;;;40.83;7.03;;;24.20;87.00;;;;;;5053504;28;20175;-86
2022/02/21 08:27:38;;;;;;;35.10;7.63;;;24.20;87.10;;;;;;5052453;28;20212;-82
2022/02/21 08:30:09;;;;;;;27.97;6.77;;;24.10;87.00;;;;;;5052211;28;20188;-82
2022/02/21 08:32:37;;;;;;;32.63;7.17;;;24.00;87.10;;;;;;5051054;28;20206;-77
2022/02/21 08:35:05;;;;;;;34.20;8.03;;;23.90;87.20;;;;;;5053205;28;20195;-78
2022/02/21 08:37:33;;;;;;;36.03;8.30;;;23.90;88.00;;;;;;5048897;28;20654;-81
2022/02/21 08:40:00;;;;;;;38.83;8.37;;;24.00;88.30;;;;;;5050403;28;20178;-79
2022/02/21 08:42:28;;;;;;;41.80;9.03;;;24.00;88.90;;;;;;5052386;28;20172;-78
2022/02/21 08:44:57;;;;;;;43.63;9.73;;;24.00;88.70;;;;;;5051434;28;20277;-76
2022/02/21 08:47:25;;;;;;;31.40;7.90;;;24.10;89.10;;;;;;5049570;28;20312;-77
2022/02/21 08:49:52;;;;;;;41.40;8.73;;;24.00;89.00;;;;;;5050477;28;20665;-75
2022/02/21 08:52:19;;;;;;;27.53;7.30;;;23.90;89.20;;;;;;5050176;28;20175;-75
2022/02/21 08:54:47;;;;;;;42.63;9.37;;;23.90;88.80;;;;;;5052136;28;20187;-74
2022/02/21 08:57:16;;;;;;;35.27;8.03;;;23.80;89.10;;;;;;5050074;28;20616;-77
2022/02/21 08:59:43;;;;;;;38.93;8.00;;;23.80;88.80;;;;;;5051726;28;20168;-75
2022/02/21 09:02:12;;;;;;;35.30;7.20;;;23.70;89.00;;;;;;5046974;28;20237;-77
2022/02/21 09:04:39;;;;;;;34.97;8.30;;;23.70;89.50;;;;;;5050911;28;20661;-76
2022/02/21 09:07:07;;;;;;;36.90;7.87;;;23.70;89.90;;;;;;5051260;28;20537;-77
2022/02/21 09:09:34;;;;;;;31.53;8.50;;;23.60;89.40;;;;;;5051274;28;20210;-76
2022/02/21 09:12:03;;;;;;;35.87;7.93;;;23.60;89.90;;;;;;5046449;28;20195;-80
2022/02/21 09:14:31;;;;;;;29.10;7.30;;;23.50;89.70;;;;;;5051576;28;20183;-78
2022/02/21 09:16:58;;;;;;;35.37;6.90;;;23.40;89.50;;;;;;5050953;28;20178;-78
2022/02/21 09:19:25;;;;;;;37.10;7.83;;;23.30;89.90;;;;;;5050518;28;20186;-76
2022/02/21 09:21:53;;;;;;;40.83;8.43;;;23.30;90.40;;;;;;5051873;28;20225;-78
2022/02/21 09:24:20;;;;;;;38.47;8.00;;;23.30;90.00;;;;;;5052127;28;20206;-79
2022/02/21 09:26:47;;;;;;;43.20;8.77;;;23.30;90.40;;;;;;5050989;28;20176;-78
2022/02/21 09:29:15;;;;;;;42.27;8.03;;;23.30;90.20;;;;;;5045323;28;20179;-80
2022/02/21 09:31:42;;;;;;;33.60;7.70;;;23.40;90.50;;;;;;5050511;28;20622;-78
2022/02/21 09:34:09;;;;;;;40.63;9.23;;;23.40;90.40;;;;;;5051606;28;20191;-79
2022/02/21 09:36:37;;;;;;;46.63;8.83;;;23.40;90.60;;;;;;5051999;28;20229;-78
2022/02/21 09:39:05;;;;;;;37.57;8.63;;;23.40;90.70;;;;;;5051269;28;20180;-78
2022/02/21 09:41:32;;;;;;;39.07;8.53;;;23.50;91.00;;;;;;5051390;28;20180;-78
2022/02/21 09:44:00;;;;;;;36.83;8.40;;;23.50;90.90;;;;;;5051752;28;20232;-78
2022/02/21 09:46:31;;;;;;;34.80;8.00;;;23.60;90.90;;;;;;5051430;28;20262;-78
2022/02/21 09:49:00;;;;;;;30.43;8.30;;;23.70;90.90;;;;;;5049730;28;20265;-79
2022/02/21 09:51:28;;;;;;;42.27;8.10;;;23.70;90.50;;;;;;5051852;28;20234;-78
2022/02/21 09:53:56;;;;;;;31.93;8.10;;;23.70;90.30;;;;;;5051716;28;20176;-79
2022/02/21 09:56:23;;;;;;;25.23;7.90;;;23.80;90.20;;;;;;5044794;28;20768;-78
2022/02/21 09:58:54;;;;;;;37.83;8.27;;;23.70;90.20;;;;;;5050184;28;20284;-78
2022/02/21 10:01:28;;;;;;;38.10;7.80;;;23.70;89.90;;;;;;5051901;28;20218;-79
2022/02/21 10:03:57;;;;;;;30.23;7.63;;;23.60;90.00;;;;;;5051412;28;20180;-79
2022/02/21 10:06:26;;;;;;;37.97;8.63;;;23.60;89.80;;;;;;5051291;28;20207;-78
2022/02/21 10:09:00;;;;;;;35.90;7.63;;;23.60;90.10;;;;;;5051329;28;20580;-79
2022/02/21 10:11:41;;;;;;;35.20;7.53;;;23.60;90.00;;;;;;5050935;28;20171;-79
2022/02/21 10:14:20;;;;;;;34.43;6.93;;;23.60;90.00;;;;;;5063180;28;20187;-80
2022/02/21 10:16:55;;;;;;;30.87;8.50;;;23.60;90.00;;;;;;5066170;28;20195;-79
2022/02/21 10:19:30;;;;;;;29.77;7.50;;;23.70;90.20;;;;;;5065031;28;20214;-79
2022/02/21 10:22:11;;;;;;;37.63;8.53;;;23.60;89.60;;;;;;5067303;28;20187;-79
2022/02/21 10:24:48;;;;;;;42.73;8.50;;;23.60;90.10;;;;;;5067728;28;20272;-79
2022/02/21 10:27:23;;;;;;;38.83;7.60;;;23.60;89.50;;;;;;5065395;28;20302;-80
2022/02/21 10:30:05;;;;;;;39.47;7.43;;;23.60;89.60;;;;;;5051700;28;20179;-80
2022/02/21 10:32:35;;;;;;;28.33;7.97;;;23.60;89.90;;;;;;5033446;28;20176;-79
2022/02/21 10:35:23;;;;;;;31.20;7.03;;;23.70;89.90;;;;;;5049751;28;20634;-80
2022/02/21 10:38:03;;;;;;;31.83;7.27;;;23.70;89.70;;;;;;5066131;28;20176;-81
2022/02/21 10:40:39;;;;;;;37.00;7.07;;;23.60;89.40;;;;;;5049506;28;20178;-80
2022/02/21 10:43:17;;;;;;;39.27;7.57;;;23.50;88.60;;;;;;5049528;28;20175;-81
2022/02/21 10:45:48;;;;;;;36.37;7.07;;;23.60;89.20;;;;;;5066662;28;20227;-81
2022/02/21 10:48:23;;;;;;;31.70;6.97;;;23.60;89.60;;;;;;5049373;28;20215;-81
2022/02/21 10:51:20;;;;;;;33.03;6.63;;;23.60;89.50;;;;;;5065804;28;20184;-82
2022/02/21 10:53:49;;;;;;;32.87;7.83;;;23.50;89.40;;;;;;5047772;28;20310;-82
2022/02/21 10:56:18;;;;;;;29.77;7.17;;;23.50;89.00;;;;;;5051201;28;20653;-82
2022/02/21 10:58:46;;;;;;;35.30;7.60;;;23.60;89.30;;;;;;5051435;28;20172;-81
2022/02/21 11:01:13;;;;;;;36.80;7.33;;;23.60;89.80;;;;;;5051877;28;20184;-81
2022/02/21 11:03:42;;;;;;;47.73;8.30;;;23.70;89.90;;;;;;5054203;28;20191;-81
2022/02/21 11:06:12;;;;;;;39.83;8.43;;;23.50;89.90;;;;;;5054843;28;20267;-82
2022/02/21 11:09:09;;;;;;;31.00;7.13;;;23.60;90.00;;;;;;5054359;28;20290;-82
2022/02/21 11:11:48;;;;;;;57.53;21.53;;;23.60;89.70;;;;;;5049270;28;20176;-83
2022/02/21 11:14:19;;;;;;;35.87;14.87;;;23.60;89.90;;;;;;5053051;28;20191;-83
2022/02/21 11:16:50;;;;;;;33.37;7.43;;;23.50;89.50;;;;;;5053897;28;20271;-83
2022/02/21 11:19:19;;;;;;;32.70;6.83;;;23.50;89.70;;;;;;5053008;28;20188;-84
2022/02/21 11:21:48;;;;;;;27.63;6.67;;;23.50;89.60;;;;;;5050230;28;20204;-83
2022/02/21 11:24:30;;;;;;;33.57;7.20;;;23.60;89.70;;;;;;5052761;28;20218;-83
2022/02/21 11:27:53;;;;;;;31.93;6.80;;;23.50;89.70;;;;;;5066770;28;20184;-84
2022/02/21 11:30:24;;;;;;;30.47;6.93;;;23.60;89.60;;;;;;5042490;28;20202;-84
2022/02/21 11:33:15;;;;;;;35.30;7.03;;;23.50;89.60;;;;;;5054344;28;20259;-84
2022/02/21 11:36:09;;;;;;;31.40;6.63;;;23.50;89.70;;;;;;5054752;28;20229;-83
2022/02/21 11:38:41;;;;;;;40.77;7.47;;;23.40;89.90;;;;;;5044668;28;20188;-84
2022/02/21 11:41:13;;;;;;;29.83;7.33;;;23.40;89.80;;;;;;5052689;28;20731;-83
2022/02/21 11:43:46;;;;;;;35.03;7.47;;;23.40;89.90;;;;;;5053977;28;20176;-84
2022/02/21 11:46:25;;;;;;;29.13;7.40;;;23.40;89.80;;;;;;5053870;28;20713;-85
2022/02/21 11:48:58;;;;;;;34.27;7.20;;;23.40;89.60;;;;;;5053699;28;20211;-83
2022/02/21 11:51:45;;;;;;;38.60;7.20;;;23.40;89.30;;;;;;5052318;28;20271;-82
2022/02/21 11:54:15;;;;;;;24.17;6.50;;;23.40;88.90;;;;;;5053426;28;20533;-83
2022/02/21 11:56:52;;;;;;;45.70;16.03;;;23.40;89.00;;;;;;5052355;28;20206;-83
2022/02/21 11:59:23;;;;;;;35.20;10.00;;;23.30;89.00;;;;;;5053831;28;20191;-82
2022/02/21 12:02:15;;;;;;;32.03;7.20;;;23.40;89.40;;;;;;5052698;28;20180;-80
2022/02/21 12:04:50;;;;;;;28.30;6.77;;;23.50;89.40;;;;;;5052973;28;20172;-82
2022/02/21 12:07:31;;;;;;;36.60;7.07;;;23.40;89.40;;;;;;5053248;28;20203;-81
2022/02/21 12:10:22;;;;;;;32.23;7.30;;;23.40;89.50;;;;;;5066893;28;20172;-80
2022/02/21 12:12:50;;;;;;;39.57;6.53;;;23.40;89.50;;;;;;5049926;28;20267;-81
2022/02/21 12:15:19;;;;;;;46.67;13.07;;;23.40;89.80;;;;;;5052957;28;20180;-78
2022/02/21 12:17:47;;;;;;;42.00;9.90;;;23.40;89.60;;;;;;5053656;28;20611;-79
2022/02/21 12:20:30;;;;;;;32.00;7.10;;;23.30;89.70;;;;;;5053494;28;20204;-77
2022/02/21 12:23:07;;;;;;;39.43;6.40;;;23.30;89.70;;;;;;5053059;28;20253;-78
2022/02/21 12:25:45;;;;;;;38.97;7.03;;;23.30;89.50;;;;;;5053251;28;20669;-81
2022/02/21 12:28:26;;;;;;;33.03;7.80;;;23.30;89.20;;;;;;5049534;28;20230;-78
2022/02/21 12:30:57;;;;;;;36.87;6.80;;;23.40;89.40;;;;;;5053506;28;20235;-78
2022/02/21 12:33:32;;;;;;;29.27;5.87;;;23.50;89.30;;;;;;5053882;28;20582;-77
2022/02/21 12:36:07;;;;;;;48.70;7.67;;;23.40;89.40;;;;;;5053211;28;20264;-78
2022/02/21 12:38:37;;;;;;;40.50;6.60;;;23.40;89.30;;;;;;5046188;28;20646;-76
2022/02/21 12:41:14;;;;;;;28.13;6.80;;;23.40;89.00;;;;;;5051459;28;20172;-77
2022/02/21 12:43:46;;;;;;;32.90;6.00;;;23.50;89.00;;;;;;5047442;28;20171;-77
2022/02/21 12:46:15;;;;;;;30.70;6.90;;;23.50;88.80;;;;;;5046068;28;20712;-77
2022/02/21 12:48:44;;;;;;;32.50;6.90;;;23.40;88.60;;;;;;5050011;28;20211;-76
2022/02/21 12:51:23;;;;;;;37.93;6.67;;;23.40;88.20;;;;;;5050848;28;20188;-77